sensor_id;sensor_type;location;lat;lon;timestamp;P1;durP1;ratioP1;P2;durP2;ratioP2
35257;SDS011;21385;50.878;8.050;2023-08-01T00:02:26;0.50;;;0.50;;
35257;SDS011;21385;50.878;8.050;2023-08-01T00:04:51;0.25;;;0.25;;
35257;SDS011;21385;50.878;8.050;2023-08-01T00:07:17;1.00;;;0.22;;
35257;SDS011;21385;50.878;8.050;2023-08-01T00:09:42;0.65;;;0.40;;
35257;SDS011;21385;50.878;8.050;2023-08-01T00:12:08;0.22;;;0.22;;
35257;SDS011;21385;50.878;8.050;2023-08-01T00:14:35;0.20;;;0.13;;
35257;SDS011;21385;50.878;8.050;2023-08-01T00:17:01;0.20;;;0.20;;
35257;SDS011;21385;50.878;8.050;2023-08-01T00:19:27;0.10;;;0.10;;
35257;SDS011;21385;50.878;8.050;2023-08-01T00:21:53;7.95;;;0.52;;
35257;SDS011;21385;50.878;8.050;2023-08-01T00:24:19;0.20;;;0.10;;
35257;SDS011;21385;50.878;8.050;2023-08-01T00:26:44;0.30;;;0.30;;
35257;SDS011;21385;50.878;8.050;2023-08-01T00:29:10;0.20;;;0.20;;
35257;SDS011;21385;50.878;8.050;2023-08-01T00:31:35;0.22;;;0.22;;
35257;SDS011;21385;50.878;8.050;2023-08-01T00:34:01;0.60;;;0.25;;
35257;SDS011;21385;50.878;8.050;2023-08-01T00:36:27;0.15;;;0.15;;
35257;SDS011;21385;50.878;8.050;2023-08-01T00:38:52;0.25;;;0.25;;
35257;SDS011;21385;50.878;8.050;2023-08-01T00:41:18;0.10;;;0.10;;
35257;SDS011;21385;50.878;8.050;2023-08-01T00:43:44;0.10;;;0.10;;
35257;SDS011;21385;50.878;8.050;2023-08-01T00:46:09;0.20;;;0.20;;
35257;SDS011;21385;50.878;8.050;2023-08-01T00:48:35;0.08;;;0.08;;
35257;SDS011;21385;50.878;8.050;2023-08-01T00:51:03;0.13;;;0.13;;
35257;SDS011;21385;50.878;8.050;2023-08-01T00:53:30;1.08;;;0.28;;
35257;SDS011;21385;50.878;8.050;2023-08-01T00:55:56;0.30;;;0.30;;
35257;SDS011;21385;50.878;8.050;2023-08-01T00:58:23;0.20;;;0.20;;
35257;SDS011;21385;50.878;8.050;2023-08-01T01:00:48;0.10;;;0.10;;
35257;SDS011;21385;50.878;8.050;2023-08-01T01:03:14;0.47;;;0.20;;
35257;SDS011;21385;50.878;8.050;2023-08-01T01:05:49;0.10;;;0.10;;
35257;SDS011;21385;50.878;8.050;2023-08-01T01:08:20;0.45;;;0.30;;
35257;SDS011;21385;50.878;8.050;2023-08-01T01:10:46;0.35;;;0.30;;
35257;SDS011;21385;50.878;8.050;2023-08-01T01:13:11;0.20;;;0.08;;
35257;SDS011;21385;50.878;8.050;2023-08-01T01:15:37;1.98;;;0.43;;
35257;SDS011;21385;50.878;8.050;2023-08-01T01:18:02;0.10;;;0.10;;
35257;SDS011;21385;50.878;8.050;2023-08-01T01:20:35;0.20;;;0.20;;
35257;SDS011;21385;50.878;8.050;2023-08-01T01:23:01;0.20;;;0.10;;
35257;SDS011;21385;50.878;8.050;2023-08-01T01:25:30;0.10;;;0.10;;
35257;SDS011;21385;50.878;8.050;2023-08-01T01:27:58;0.00;;;0.00;;
35257;SDS011;21385;50.878;8.050;2023-08-01T01:30:25;0.10;;;0.10;;
35257;SDS011;21385;50.878;8.050;2023-08-01T01:32:52;0.28;;;0.20;;
35257;SDS011;21385;50.878;8.050;2023-08-01T01:35:19;0.10;;;0.10;;
35257;SDS011;21385;50.878;8.050;2023-08-01T01:37:44;0.20;;;0.20;;
35257;SDS011;21385;50.878;8.050;2023-08-01T01:40:10;0.38;;;0.30;;
35257;SDS011;21385;50.878;8.050;2023-08-01T01:42:36;0.17;;;0.13;;
35257;SDS011;21385;50.878;8.050;2023-08-01T01:45:02;0.13;;;0.13;;
35257;SDS011;21385;50.878;8.050;2023-08-01T01:47:28;0.20;;;0.20;;
35257;SDS011;21385;50.878;8.050;2023-08-01T01:49:53;0.20;;;0.20;;
35257;SDS011;21385;50.878;8.050;2023-08-01T01:52:19;0.10;;;0.10;;
35257;SDS011;21385;50.878;8.050;2023-08-01T01:54:44;0.30;;;0.20;;
35257;SDS011;21385;50.878;8.050;2023-08-01T01:57:10;0.17;;;0.15;;
35257;SDS011;21385;50.878;8.050;2023-08-01T01:59:35;0.20;;;0.20;;
35257;SDS011;21385;50.878;8.050;2023-08-01T02:02:01;0.20;;;0.20;;
35257;SDS011;21385;50.878;8.050;2023-08-01T02:04:29;0.10;;;0.10;;
35257;SDS011;21385;50.878;8.050;2023-08-01T02:06:54;0.10;;;0.10;;
35257;SDS011;21385;50.878;8.050;2023-08-01T02:09:20;0.32;;;0.32;;
35257;SDS011;21385;50.878;8.050;2023-08-01T02:11:46;0.68;;;0.20;;
35257;SDS011;21385;50.878;8.050;2023-08-01T02:14:11;0.20;;;0.20;;
35257;SDS011;21385;50.878;8.050;2023-08-01T02:16:38;0.20;;;0.20;;
35257;SDS011;21385;50.878;8.050;2023-08-01T02:19:03;0.40;;;0.40;;
35257;SDS011;21385;50.878;8.050;2023-08-01T02:21:29;0.20;;;0.20;;
35257;SDS011;21385;50.878;8.050;2023-08-01T02:23:54;0.13;;;0.13;;
35257;SDS011;21385;50.878;8.050;2023-08-01T02:26:20;0.03;;;0.03;;
35257;SDS011;21385;50.878;8.050;2023-08-01T02:28:48;0.70;;;0.15;;
35257;SDS011;21385;50.878;8.050;2023-08-01T02:31:13;1.00;;;0.28;;
35257;SDS011;21385;50.878;8.050;2023-08-01T02:33:39;0.10;;;0.10;;
35257;SDS011;21385;50.878;8.050;2023-08-01T02:36:05;0.10;;;0.10;;
35257;SDS011;21385;50.878;8.050;2023-08-01T02:38:31;0.20;;;0.20;;
35257;SDS011;21385;50.878;8.050;2023-08-01T02:40:56;6.80;;;0.22;;
35257;SDS011;21385;50.878;8.050;2023-08-01T02:43:22;0.20;;;0.20;;
35257;SDS011;21385;50.878;8.050;2023-08-01T02:45:47;0.20;;;0.20;;
35257;SDS011;21385;50.878;8.050;2023-08-01T02:48:13;0.20;;;0.20;;
35257;SDS011;21385;50.878;8.050;2023-08-01T02:50:38;0.80;;;0.40;;
35257;SDS011;21385;50.878;8.050;2023-08-01T02:53:05;0.10;;;0.10;;
35257;SDS011;21385;50.878;8.050;2023-08-01T02:55:30;0.20;;;0.20;;
35257;SDS011;21385;50.878;8.050;2023-08-01T02:57:56;0.20;;;0.20;;
35257;SDS011;21385;50.878;8.050;2023-08-01T03:00:21;0.10;;;0.10;;
35257;SDS011;21385;50.878;8.050;2023-08-01T03:02:47;0.10;;;0.10;;
35257;SDS011;21385;50.878;8.050;2023-08-01T03:05:13;0.10;;;0.10;;
35257;SDS011;21385;50.878;8.050;2023-08-01T03:07:38;0.52;;;0.30;;
35257;SDS011;21385;50.878;8.050;2023-08-01T03:10:04;1.00;;;0.30;;
35257;SDS011;21385;50.878;8.050;2023-08-01T03:12:31;0.08;;;0.08;;
35257;SDS011;21385;50.878;8.050;2023-08-01T03:14:57;0.88;;;0.17;;
35257;SDS011;21385;50.878;8.050;2023-08-01T03:17:23;0.08;;;0.08;;
35257;SDS011;21385;50.878;8.050;2023-08-01T03:19:49;0.47;;;0.30;;
35257;SDS011;21385;50.878;8.050;2023-08-01T03:22:15;0.17;;;0.10;;
35257;SDS011;21385;50.878;8.050;2023-08-01T03:24:41;0.10;;;0.10;;
35257;SDS011;21385;50.878;8.050;2023-08-01T03:27:07;0.13;;;0.13;;
35257;SDS011;21385;50.878;8.050;2023-08-01T03:29:32;0.03;;;0.03;;
35257;SDS011;21385;50.878;8.050;2023-08-01T03:31:58;0.10;;;0.10;;
35257;SDS011;21385;50.878;8.050;2023-08-01T03:34:24;0.10;;;0.10;;
35257;SDS011;21385;50.878;8.050;2023-08-01T03:36:51;0.10;;;0.10;;
35257;SDS011;21385;50.878;8.050;2023-08-01T03:39:17;0.17;;;0.17;;
35257;SDS011;21385;50.878;8.050;2023-08-01T03:41:43;0.00;;;0.00;;
35257;SDS011;21385;50.878;8.050;2023-08-01T03:44:09;0.10;;;0.10;;
35257;SDS011;21385;50.878;8.050;2023-08-01T03:46:34;0.00;;;0.00;;
35257;SDS011;21385;50.878;8.050;2023-08-01T03:49:00;0.13;;;0.13;;
35257;SDS011;21385;50.878;8.050;2023-08-01T03:51:25;0.15;;;0.15;;
35257;SDS011;21385;50.878;8.050;2023-08-01T03:53:51;0.10;;;0.10;;
35257;SDS011;21385;50.878;8.050;2023-08-01T03:56:16;0.10;;;0.10;;
35257;SDS011;21385;50.878;8.050;2023-08-01T03:58:42;0.10;;;0.10;;
35257;SDS011;21385;50.878;8.050;2023-08-01T04:01:08;0.10;;;0.10;;
35257;SDS011;21385;50.878;8.050;2023-08-01T04:03:33;0.15;;;0.10;;
35257;SDS011;21385;50.878;8.050;2023-08-01T04:05:59;0.20;;;0.20;;
35257;SDS011;21385;50.878;8.050;2023-08-01T04:08:24;1.15;;;0.22;;
35257;SDS011;21385;50.878;8.050;2023-08-01T04:10:50;0.60;;;0.60;;
35257;SDS011;21385;50.878;8.050;2023-08-01T04:13:15;0.80;;;0.50;;
35257;SDS011;21385;50.878;8.050;2023-08-01T04:15:41;0.47;;;0.30;;
35257;SDS011;21385;50.878;8.050;2023-08-01T04:18:07;0.20;;;0.20;;
35257;SDS011;21385;50.878;8.050;2023-08-01T04:20:32;2.13;;;0.25;;
35257;SDS011;21385;50.878;8.050;2023-08-01T04:22:58;0.25;;;0.25;;
35257;SDS011;21385;50.878;8.050;2023-08-01T04:25:24;0.47;;;0.30;;
35257;SDS011;21385;50.878;8.050;2023-08-01T04:27:51;3.08;;;0.50;;
35257;SDS011;21385;50.878;8.050;2023-08-01T04:30:17;0.82;;;0.82;;
35257;SDS011;21385;50.878;8.050;2023-08-01T04:32:43;0.90;;;0.80;;
35257;SDS011;21385;50.878;8.050;2023-08-01T04:35:08;1.60;;;1.05;;
35257;SDS011;21385;50.878;8.050;2023-08-01T04:37:34;0.70;;;0.70;;
35257;SDS011;21385;50.878;8.050;2023-08-01T04:40:00;0.98;;;0.80;;
35257;SDS011;21385;50.878;8.050;2023-08-01T04:42:25;2.33;;;1.08;;
35257;SDS011;21385;50.878;8.050;2023-08-01T04:44:51;1.23;;;0.57;;
35257;SDS011;21385;50.878;8.050;2023-08-01T04:47:17;0.70;;;0.70;;
35257;SDS011;21385;50.878;8.050;2023-08-01T04:49:43;0.70;;;0.70;;
35257;SDS011;21385;50.878;8.050;2023-08-01T04:52:09;1.63;;;0.80;;
35257;SDS011;21385;50.878;8.050;2023-08-01T04:54:35;9.98;;;0.98;;
35257;SDS011;21385;50.878;8.050;2023-08-01T04:57:00;21.52;;;0.98;;
35257;SDS011;21385;50.878;8.050;2023-08-01T04:59:26;1.73;;;1.30;;
35257;SDS011;21385;50.878;8.050;2023-08-01T05:01:51;1.80;;;1.20;;
35257;SDS011;21385;50.878;8.050;2023-08-01T05:04:17;5.38;;;1.35;;
35257;SDS011;21385;50.878;8.050;2023-08-01T05:06:42;1.40;;;1.15;;
35257;SDS011;21385;50.878;8.050;2023-08-01T05:09:08;1.05;;;1.00;;
35257;SDS011;21385;50.878;8.050;2023-08-01T05:11:34;1.17;;;1.02;;
35257;SDS011;21385;50.878;8.050;2023-08-01T05:13:59;1.23;;;0.95;;
35257;SDS011;21385;50.878;8.050;2023-08-01T05:16:25;1.25;;;1.15;;
35257;SDS011;21385;50.878;8.050;2023-08-01T05:18:51;1.13;;;1.02;;
35257;SDS011;21385;50.878;8.050;2023-08-01T05:21:16;1.52;;;1.33;;
35257;SDS011;21385;50.878;8.050;2023-08-01T05:23:42;1.67;;;1.50;;
35257;SDS011;21385;50.878;8.050;2023-08-01T05:26:07;2.13;;;1.38;;
35257;SDS011;21385;50.878;8.050;2023-08-01T05:28:33;3.35;;;1.67;;
35257;SDS011;21385;50.878;8.050;2023-08-01T05:30:58;1.80;;;1.40;;
35257;SDS011;21385;50.878;8.050;2023-08-01T05:33:24;2.08;;;1.88;;
35257;SDS011;21385;50.878;8.050;2023-08-01T05:35:49;2.08;;;1.77;;
35257;SDS011;21385;50.878;8.050;2023-08-01T05:38:15;2.47;;;1.90;;
35257;SDS011;21385;50.878;8.050;2023-08-01T05:40:41;2.15;;;1.80;;
35257;SDS011;21385;50.878;8.050;2023-08-01T05:43:06;3.60;;;2.75;;
35257;SDS011;21385;50.878;8.050;2023-08-01T05:45:33;10.02;;;2.50;;
35257;SDS011;21385;50.878;8.050;2023-08-01T05:47:59;2.55;;;1.63;;
35257;SDS011;21385;50.878;8.050;2023-08-01T05:50:26;2.70;;;1.70;;
35257;SDS011;21385;50.878;8.050;2023-08-01T05:52:51;4.28;;;2.30;;
35257;SDS011;21385;50.878;8.050;2023-08-01T05:55:17;1.42;;;1.33;;
35257;SDS011;21385;50.878;8.050;2023-08-01T05:57:42;4.70;;;1.80;;
35257;SDS011;21385;50.878;8.050;2023-08-01T06:00:08;2.40;;;2.10;;
35257;SDS011;21385;50.878;8.050;2023-08-01T06:02:34;3.45;;;1.88;;
35257;SDS011;21385;50.878;8.050;2023-08-01T06:05:00;2.55;;;2.00;;
35257;SDS011;21385;50.878;8.050;2023-08-01T06:07:25;2.33;;;1.52;;
35257;SDS011;21385;50.878;8.050;2023-08-01T06:09:51;5.18;;;2.15;;
35257;SDS011;21385;50.878;8.050;2023-08-01T06:12:17;4.88;;;2.65;;
35257;SDS011;21385;50.878;8.050;2023-08-01T06:14:43;4.57;;;2.25;;
35257;SDS011;21385;50.878;8.050;2023-08-01T06:17:09;3.60;;;2.25;;
35257;SDS011;21385;50.878;8.050;2023-08-01T06:19:35;3.70;;;2.50;;
35257;SDS011;21385;50.878;8.050;2023-08-01T06:22:00;2.38;;;2.17;;
35257;SDS011;21385;50.878;8.050;2023-08-01T06:24:26;3.05;;;1.92;;
35257;SDS011;21385;50.878;8.050;2023-08-01T06:26:52;3.95;;;2.60;;
35257;SDS011;21385;50.878;8.050;2023-08-01T06:29:17;4.63;;;2.70;;
35257;SDS011;21385;50.878;8.050;2023-08-01T06:31:43;2.85;;;2.25;;
35257;SDS011;21385;50.878;8.050;2023-08-01T06:34:08;2.22;;;1.85;;
35257;SDS011;21385;50.878;8.050;2023-08-01T06:36:34;3.83;;;2.72;;
35257;SDS011;21385;50.878;8.050;2023-08-01T06:39:00;4.20;;;2.83;;
35257;SDS011;21385;50.878;8.050;2023-08-01T06:41:25;2.78;;;2.08;;
35257;SDS011;21385;50.878;8.050;2023-08-01T06:43:51;8.52;;;2.45;;
35257;SDS011;21385;50.878;8.050;2023-08-01T06:46:17;2.10;;;1.90;;
35257;SDS011;21385;50.878;8.050;2023-08-01T06:48:42;3.95;;;2.58;;
35257;SDS011;21385;50.878;8.050;2023-08-01T06:51:08;4.70;;;2.45;;
35257;SDS011;21385;50.878;8.050;2023-08-01T06:53:33;3.03;;;1.92;;
35257;SDS011;21385;50.878;8.050;2023-08-01T06:55:59;2.70;;;2.17;;
35257;SDS011;21385;50.878;8.050;2023-08-01T06:58:24;3.00;;;1.80;;
35257;SDS011;21385;50.878;8.050;2023-08-01T07:00:50;11.88;;;2.50;;
35257;SDS011;21385;50.878;8.050;2023-08-01T07:03:16;4.00;;;2.35;;
35257;SDS011;21385;50.878;8.050;2023-08-01T07:05:42;3.78;;;2.03;;
35257;SDS011;21385;50.878;8.050;2023-08-01T07:08:07;3.67;;;2.22;;
35257;SDS011;21385;50.878;8.050;2023-08-01T07:10:37;1.45;;;1.35;;
35257;SDS011;21385;50.878;8.050;2023-08-01T07:13:03;3.97;;;1.98;;
35257;SDS011;21385;50.878;8.050;2023-08-01T07:15:32;6.15;;;2.13;;
35257;SDS011;21385;50.878;8.050;2023-08-01T07:17:58;1.80;;;1.70;;
35257;SDS011;21385;50.878;8.050;2023-08-01T07:20:23;2.75;;;2.45;;
35257;SDS011;21385;50.878;8.050;2023-08-01T07:22:49;3.13;;;2.33;;
35257;SDS011;21385;50.878;8.050;2023-08-01T07:25:15;3.42;;;2.45;;
35257;SDS011;21385;50.878;8.050;2023-08-01T07:27:41;6.47;;;2.55;;
35257;SDS011;21385;50.878;8.050;2023-08-01T07:30:07;13.13;;;1.95;;
35257;SDS011;21385;50.878;8.050;2023-08-01T07:32:35;2.13;;;1.75;;
35257;SDS011;21385;50.878;8.050;2023-08-01T07:35:02;3.70;;;2.20;;
35257;SDS011;21385;50.878;8.050;2023-08-01T07:37:28;4.05;;;2.08;;
35257;SDS011;21385;50.878;8.050;2023-08-01T07:39:55;3.92;;;1.90;;
35257;SDS011;21385;50.878;8.050;2023-08-01T07:42:21;4.65;;;1.77;;
35257;SDS011;21385;50.878;8.050;2023-08-01T07:44:46;2.95;;;2.30;;
35257;SDS011;21385;50.878;8.050;2023-08-01T07:47:12;9.50;;;2.15;;
35257;SDS011;21385;50.878;8.050;2023-08-01T07:49:38;8.70;;;1.88;;
35257;SDS011;21385;50.878;8.050;2023-08-01T07:52:04;5.70;;;2.50;;
35257;SDS011;21385;50.878;8.050;2023-08-01T07:54:29;4.60;;;2.28;;
35257;SDS011;21385;50.878;8.050;2023-08-01T07:56:55;4.93;;;2.42;;
35257;SDS011;21385;50.878;8.050;2023-08-01T07:59:20;4.70;;;2.28;;
35257;SDS011;21385;50.878;8.050;2023-08-01T08:01:46;5.75;;;2.80;;
35257;SDS011;21385;50.878;8.050;2023-08-01T08:04:12;6.68;;;3.28;;
35257;SDS011;21385;50.878;8.050;2023-08-01T08:06:39;3.20;;;2.70;;
35257;SDS011;21385;50.878;8.050;2023-08-01T08:09:05;1.67;;;1.58;;
35257;SDS011;21385;50.878;8.050;2023-08-01T08:11:31;3.63;;;2.25;;
35257;SDS011;21385;50.878;8.050;2023-08-01T08:13:57;4.47;;;2.28;;
35257;SDS011;21385;50.878;8.050;2023-08-01T08:16:23;2.28;;;2.05;;
35257;SDS011;21385;50.878;8.050;2023-08-01T08:18:49;4.25;;;2.55;;
35257;SDS011;21385;50.878;8.050;2023-08-01T08:21:14;8.38;;;3.05;;
35257;SDS011;21385;50.878;8.050;2023-08-01T08:23:40;5.88;;;3.17;;
35257;SDS011;21385;50.878;8.050;2023-08-01T08:26:05;6.95;;;3.40;;
35257;SDS011;21385;50.878;8.050;2023-08-01T08:28:32;3.85;;;3.47;;
35257;SDS011;21385;50.878;8.050;2023-08-01T08:30:59;5.35;;;4.05;;
35257;SDS011;21385;50.878;8.050;2023-08-01T08:33:26;10.15;;;3.25;;
35257;SDS011;21385;50.878;8.050;2023-08-01T08:35:52;3.83;;;3.42;;
35257;SDS011;21385;50.878;8.050;2023-08-01T08:38:17;3.92;;;3.45;;
35257;SDS011;21385;50.878;8.050;2023-08-01T08:40:48;3.10;;;2.30;;
35257;SDS011;21385;50.878;8.050;2023-08-01T08:43:26;3.55;;;2.60;;
35257;SDS011;21385;50.878;8.050;2023-08-01T08:45:53;11.52;;;3.80;;
35257;SDS011;21385;50.878;8.050;2023-08-01T08:48:22;3.58;;;3.22;;
35257;SDS011;21385;50.878;8.050;2023-08-01T08:50:50;3.97;;;2.80;;
35257;SDS011;21385;50.878;8.050;2023-08-01T08:53:16;4.07;;;3.35;;
35257;SDS011;21385;50.878;8.050;2023-08-01T08:55:43;5.70;;;3.90;;
35257;SDS011;21385;50.878;8.050;2023-08-01T08:58:09;4.30;;;3.20;;
35257;SDS011;21385;50.878;8.050;2023-08-01T09:00:35;5.35;;;3.67;;
35257;SDS011;21385;50.878;8.050;2023-08-01T09:03:02;4.15;;;3.45;;
35257;SDS011;21385;50.878;8.050;2023-08-01T09:05:30;5.82;;;3.03;;
35257;SDS011;21385;50.878;8.050;2023-08-01T09:07:59;2.53;;;2.33;;
35257;SDS011;21385;50.878;8.050;2023-08-01T09:10:30;6.95;;;2.38;;
35257;SDS011;21385;50.878;8.050;2023-08-01T09:12:56;2.53;;;2.33;;
35257;SDS011;21385;50.878;8.050;2023-08-01T09:15:22;2.67;;;2.45;;
35257;SDS011;21385;50.878;8.050;2023-08-01T09:17:51;1.83;;;1.60;;
35257;SDS011;21385;50.878;8.050;2023-08-01T09:20:18;3.72;;;2.13;;
35257;SDS011;21385;50.878;8.050;2023-08-01T09:22:44;5.65;;;2.30;;
35257;SDS011;21385;50.878;8.050;2023-08-01T09:25:11;5.07;;;2.70;;
35257;SDS011;21385;50.878;8.050;2023-08-01T09:27:39;7.35;;;2.13;;
35257;SDS011;21385;50.878;8.050;2023-08-01T09:30:09;3.17;;;2.20;;
35257;SDS011;21385;50.878;8.050;2023-08-01T09:32:37;2.03;;;1.83;;
35257;SDS011;21385;50.878;8.050;2023-08-01T09:35:03;10.35;;;2.85;;
35257;SDS011;21385;50.878;8.050;2023-08-01T09:37:41;5.55;;;2.08;;
35257;SDS011;21385;50.878;8.050;2023-08-01T09:40:10;3.08;;;2.83;;
35257;SDS011;21385;50.878;8.050;2023-08-01T09:42:45;2.88;;;2.13;;
35257;SDS011;21385;50.878;8.050;2023-08-01T09:45:14;2.38;;;1.98;;
35257;SDS011;21385;50.878;8.050;2023-08-01T09:47:41;5.10;;;2.45;;
35257;SDS011;21385;50.878;8.050;2023-08-01T09:50:11;2.92;;;2.22;;
35257;SDS011;21385;50.878;8.050;2023-08-01T09:52:45;3.22;;;2.38;;
35257;SDS011;21385;50.878;8.050;2023-08-01T09:55:17;3.45;;;2.42;;
35257;SDS011;21385;50.878;8.050;2023-08-01T09:57:44;3.88;;;2.67;;
35257;SDS011;21385;50.878;8.050;2023-08-01T10:00:15;3.17;;;2.28;;
35257;SDS011;21385;50.878;8.050;2023-08-01T10:02:41;3.80;;;2.35;;
35257;SDS011;21385;50.878;8.050;2023-08-01T10:05:08;3.60;;;3.25;;
35257;SDS011;21385;50.878;8.050;2023-08-01T10:07:35;3.55;;;3.00;;
35257;SDS011;21385;50.878;8.050;2023-08-01T10:10:06;5.72;;;2.85;;
35257;SDS011;21385;50.878;8.050;2023-08-01T10:12:32;6.05;;;2.08;;
35257;SDS011;21385;50.878;8.050;2023-08-01T10:14:58;2.85;;;1.90;;
35257;SDS011;21385;50.878;8.050;2023-08-01T10:17:25;15.05;;;2.78;;
35257;SDS011;21385;50.878;8.050;2023-08-01T10:19:51;4.65;;;2.83;;
35257;SDS011;21385;50.878;8.050;2023-08-01T10:22:18;4.57;;;2.33;;
35257;SDS011;21385;50.878;8.050;2023-08-01T10:24:45;4.57;;;2.60;;
35257;SDS011;21385;50.878;8.050;2023-08-01T10:29:39;3.05;;;2.15;;
35257;SDS011;21385;50.878;8.050;2023-08-01T10:32:06;2.90;;;1.33;;
35257;SDS011;21385;50.878;8.050;2023-08-01T10:34:32;4.50;;;2.58;;
35257;SDS011;21385;50.878;8.050;2023-08-01T10:36:58;9.32;;;2.30;;
35257;SDS011;21385;50.878;8.050;2023-08-01T10:39:25;2.95;;;2.28;;
35257;SDS011;21385;50.878;8.050;2023-08-01T10:42:01;1.75;;;1.42;;
35257;SDS011;21385;50.878;8.050;2023-08-01T10:44:28;2.67;;;2.08;;
35257;SDS011;21385;50.878;8.050;2023-08-01T10:49:37;6.70;;;2.53;;
35257;SDS011;21385;50.878;8.050;2023-08-01T10:52:20;6.38;;;2.30;;
35257;SDS011;21385;50.878;8.050;2023-08-01T10:54:56;4.20;;;2.40;;
35257;SDS011;21385;50.878;8.050;2023-08-01T10:57:23;4.05;;;2.38;;
35257;SDS011;21385;50.878;8.050;2023-08-01T10:59:50;3.17;;;2.22;;
35257;SDS011;21385;50.878;8.050;2023-08-01T11:02:22;2.50;;;1.85;;
35257;SDS011;21385;50.878;8.050;2023-08-01T11:07:22;2.22;;;1.45;;
35257;SDS011;21385;50.878;8.050;2023-08-01T11:09:48;3.85;;;2.65;;
35257;SDS011;21385;50.878;8.050;2023-08-01T11:12:14;3.25;;;2.10;;
35257;SDS011;21385;50.878;8.050;2023-08-01T11:14:40;3.20;;;1.75;;
35257;SDS011;21385;50.878;8.050;2023-08-01T11:17:05;2.25;;;1.63;;
35257;SDS011;21385;50.878;8.050;2023-08-01T11:19:32;2.85;;;1.17;;
35257;SDS011;21385;50.878;8.050;2023-08-01T11:21:57;3.15;;;1.55;;
35257;SDS011;21385;50.878;8.050;2023-08-01T11:24:25;1.25;;;0.93;;
35257;SDS011;21385;50.878;8.050;2023-08-01T11:26:51;4.80;;;2.08;;
35257;SDS011;21385;50.878;8.050;2023-08-01T11:29:19;2.45;;;1.67;;
35257;SDS011;21385;50.878;8.050;2023-08-01T11:31:54;6.03;;;1.60;;
35257;SDS011;21385;50.878;8.050;2023-08-01T11:34:21;4.57;;;1.70;;
35257;SDS011;21385;50.878;8.050;2023-08-01T11:36:47;1.50;;;1.33;;
35257;SDS011;21385;50.878;8.050;2023-08-01T11:39:14;1.10;;;1.00;;
35257;SDS011;21385;50.878;8.050;2023-08-01T11:41:40;2.70;;;1.67;;
35257;SDS011;21385;50.878;8.050;2023-08-01T11:44:07;1.00;;;0.90;;
35257;SDS011;21385;50.878;8.050;2023-08-01T11:46:34;1.25;;;1.08;;
35257;SDS011;21385;50.878;8.050;2023-08-01T11:49:03;3.55;;;1.45;;
35257;SDS011;21385;50.878;8.050;2023-08-01T11:51:39;1.85;;;1.20;;
35257;SDS011;21385;50.878;8.050;2023-08-01T11:54:06;1.20;;;1.00;;
35257;SDS011;21385;50.878;8.050;2023-08-01T11:56:32;1.13;;;0.73;;
35257;SDS011;21385;50.878;8.050;2023-08-01T11:58:58;2.17;;;1.10;;
35257;SDS011;21385;50.878;8.050;2023-08-01T12:01:24;1.65;;;1.05;;
35257;SDS011;21385;50.878;8.050;2023-08-01T12:03:54;3.90;;;1.75;;
35257;SDS011;21385;50.878;8.050;2023-08-01T12:06:21;1.05;;;0.85;;
35257;SDS011;21385;50.878;8.050;2023-08-01T12:08:49;1.48;;;1.20;;
35257;SDS011;21385;50.878;8.050;2023-08-01T12:14:06;1.48;;;1.20;;
35257;SDS011;21385;50.878;8.050;2023-08-01T12:16:40;3.75;;;1.20;;
35257;SDS011;21385;50.878;8.050;2023-08-01T12:19:07;1.80;;;1.25;;
35257;SDS011;21385;50.878;8.050;2023-08-01T12:21:34;2.05;;;0.80;;
35257;SDS011;21385;50.878;8.050;2023-08-01T12:24:00;1.23;;;0.85;;
35257;SDS011;21385;50.878;8.050;2023-08-01T12:26:26;1.27;;;0.70;;
35257;SDS011;21385;50.878;8.050;2023-08-01T12:28:51;1.80;;;1.15;;
35257;SDS011;21385;50.878;8.050;2023-08-01T12:31:20;2.38;;;1.00;;
35257;SDS011;21385;50.878;8.050;2023-08-01T12:33:47;7.03;;;1.48;;
35257;SDS011;21385;50.878;8.050;2023-08-01T12:36:13;4.30;;;1.48;;
35257;SDS011;21385;50.878;8.050;2023-08-01T12:38:39;1.67;;;1.10;;
35257;SDS011;21385;50.878;8.050;2023-08-01T12:41:05;2.40;;;1.08;;
35257;SDS011;21385;50.878;8.050;2023-08-01T12:43:31;1.70;;;1.10;;
35257;SDS011;21385;50.878;8.050;2023-08-01T12:45:57;1.00;;;0.90;;
35257;SDS011;21385;50.878;8.050;2023-08-01T12:48:23;1.00;;;1.00;;
35257;SDS011;21385;50.878;8.050;2023-08-01T12:50:52;6.80;;;0.98;;
35257;SDS011;21385;50.878;8.050;2023-08-01T12:53:19;1.20;;;0.80;;
35257;SDS011;21385;50.878;8.050;2023-08-01T12:55:46;1.08;;;0.80;;
35257;SDS011;21385;50.878;8.050;2023-08-01T12:58:12;0.98;;;0.73;;
35257;SDS011;21385;50.878;8.050;2023-08-01T13:00:39;0.95;;;0.90;;
35257;SDS011;21385;50.878;8.050;2023-08-01T13:03:05;3.08;;;0.95;;
35257;SDS011;21385;50.878;8.050;2023-08-01T13:05:34;1.08;;;0.80;;
35257;SDS011;21385;50.878;8.050;2023-08-01T13:08:01;1.88;;;0.68;;
35257;SDS011;21385;50.878;8.050;2023-08-01T13:10:29;1.42;;;0.60;;
35257;SDS011;21385;50.878;8.050;2023-08-01T13:12:56;1.52;;;1.10;;
35257;SDS011;21385;50.878;8.050;2023-08-01T13:15:22;3.60;;;1.55;;
35257;SDS011;21385;50.878;8.050;2023-08-01T13:17:48;0.35;;;0.32;;
35257;SDS011;21385;50.878;8.050;2023-08-01T13:20:15;0.95;;;0.82;;
35257;SDS011;21385;50.878;8.050;2023-08-01T13:22:40;0.82;;;0.80;;
35257;SDS011;21385;50.878;8.050;2023-08-01T13:25:06;1.35;;;0.65;;
35257;SDS011;21385;50.878;8.050;2023-08-01T13:27:34;0.88;;;0.88;;
35257;SDS011;21385;50.878;8.050;2023-08-01T13:30:00;2.55;;;0.90;;
35257;SDS011;21385;50.878;8.050;2023-08-01T13:32:26;1.30;;;1.00;;
35257;SDS011;21385;50.878;8.050;2023-08-01T13:34:52;2.75;;;1.27;;
35257;SDS011;21385;50.878;8.050;2023-08-01T13:37:17;0.60;;;0.60;;
35257;SDS011;21385;50.878;8.050;2023-08-01T13:39:43;1.75;;;1.10;;
35257;SDS011;21385;50.878;8.050;2023-08-01T13:42:10;2.05;;;0.90;;
35257;SDS011;21385;50.878;8.050;2023-08-01T13:44:36;0.70;;;0.40;;
35257;SDS011;21385;50.878;8.050;2023-08-01T13:47:02;4.93;;;1.00;;
35257;SDS011;21385;50.878;8.050;2023-08-01T13:49:28;0.40;;;0.40;;
35257;SDS011;21385;50.878;8.050;2023-08-01T13:51:54;0.25;;;0.25;;
35257;SDS011;21385;50.878;8.050;2023-08-01T13:54:20;1.17;;;0.70;;
35257;SDS011;21385;50.878;8.050;2023-08-01T13:56:45;0.93;;;0.75;;
35257;SDS011;21385;50.878;8.050;2023-08-01T13:59:11;0.88;;;0.70;;
35257;SDS011;21385;50.878;8.050;2023-08-01T14:01:36;3.53;;;0.80;;
35257;SDS011;21385;50.878;8.050;2023-08-01T14:04:03;3.03;;;0.88;;
35257;SDS011;21385;50.878;8.050;2023-08-01T14:06:29;0.60;;;0.60;;
35257;SDS011;21385;50.878;8.050;2023-08-01T14:08:55;0.63;;;0.63;;
35257;SDS011;21385;50.878;8.050;2023-08-01T14:11:20;2.10;;;0.95;;
35257;SDS011;21385;50.878;8.050;2023-08-01T14:13:46;2.60;;;0.73;;
35257;SDS011;21385;50.878;8.050;2023-08-01T14:16:12;2.28;;;1.15;;
35257;SDS011;21385;50.878;8.050;2023-08-01T14:18:38;1.70;;;1.08;;
35257;SDS011;21385;50.878;8.050;2023-08-01T14:21:04;4.50;;;0.70;;
35257;SDS011;21385;50.878;8.050;2023-08-01T14:23:30;0.25;;;0.22;;
35257;SDS011;21385;50.878;8.050;2023-08-01T14:25:59;0.52;;;0.43;;
35257;SDS011;21385;50.878;8.050;2023-08-01T14:28:25;0.68;;;0.55;;
35257;SDS011;21385;50.878;8.050;2023-08-01T14:30:50;1.75;;;0.90;;
35257;SDS011;21385;50.878;8.050;2023-08-01T14:33:16;0.55;;;0.40;;
35257;SDS011;21385;50.878;8.050;2023-08-01T14:35:42;0.90;;;0.68;;
35257;SDS011;21385;50.878;8.050;2023-08-01T14:38:07;0.40;;;0.40;;
35257;SDS011;21385;50.878;8.050;2023-08-01T14:40:33;2.60;;;0.85;;
35257;SDS011;21385;50.878;8.050;2023-08-01T14:43:00;2.42;;;0.90;;
35257;SDS011;21385;50.878;8.050;2023-08-01T14:45:27;1.75;;;0.77;;
35257;SDS011;21385;50.878;8.050;2023-08-01T14:47:52;0.90;;;0.85;;
35257;SDS011;21385;50.878;8.050;2023-08-01T14:50:18;1.25;;;0.60;;
35257;SDS011;21385;50.878;8.050;2023-08-01T14:52:43;0.80;;;0.80;;
35257;SDS011;21385;50.878;8.050;2023-08-01T14:55:09;2.25;;;1.00;;